sensor_id;sensor_type;location;lat;lon;timestamp;pressure;altitude;pressure_sealevel;temperature;humidity
55271;BME280;41132;47.162;9.470;2023-05-03T00:02:19;97122.41;;;9.41;100.00
55271;BME280;41132;47.162;9.470;2023-05-03T00:04:44;97122.13;;;9.45;100.00
55271;BME280;41132;47.162;9.470;2023-05-03T00:07:12;97135.81;;;9.48;100.00
55271;BME280;41132;47.162;9.470;2023-05-03T00:09:37;97117.56;;;9.37;100.00
55271;BME280;41132;47.162;9.470;2023-05-03T00:12:03;97123.88;;;9.25;100.00
55271;BME280;41132;47.162;9.470;2023-05-03T00:14:30;97122.50;;;9.30;100.00
55271;BME280;41132;47.162;9.470;2023-05-03T00:16:55;97128.97;;;9.26;100.00
55271;BME280;41132;47.162;9.470;2023-05-03T00:19:20;97118.47;;;9.26;100.00
55271;BME280;41132;47.162;9.470;2023-05-03T00:21:46;97130.44;;;9.19;100.00
55271;BME280;41132;47.162;9.470;2023-05-03T00:24:12;97125.59;;;9.14;100.00
55271;BME280;41132;47.162;9.470;2023-05-03T00:26:37;97120.06;;;9.08;100.00
55271;BME280;41132;47.162;9.470;2023-05-03T00:29:03;97114.44;;;9.12;100.00
55271;BME280;41132;47.162;9.470;2023-05-03T00:31:28;97114.03;;;9.17;100.00
55271;BME280;41132;47.162;9.470;2023-05-03T00:33:53;97121.47;;;9.12;100.00
55271;BME280;41132;47.162;9.470;2023-05-03T00:36:19;97112.91;;;9.10;100.00
55271;BME280;41132;47.162;9.470;2023-05-03T00:38:44;97114.81;;;9.08;100.00
55271;BME280;41132;47.162;9.470;2023-05-03T00:41:10;97122.69;;;9.08;100.00
55271;BME280;41132;47.162;9.470;2023-05-03T00:43:36;97126.44;;;9.15;100.00
55271;BME280;41132;47.162;9.470;2023-05-03T00:46:02;97120.59;;;9.02;100.00
55271;BME280;41132;47.162;9.470;2023-05-03T00:48:29;97126.25;;;8.97;100.00
55271;BME280;41132;47.162;9.470;2023-05-03T00:50:59;97121.34;;;8.92;100.00
55271;BME280;41132;47.162;9.470;2023-05-03T00:53:25;97128.09;;;8.85;100.00
55271;BME280;41132;47.162;9.470;2023-05-03T00:55:52;97121.34;;;8.92;100.00
55271;BME280;41132;47.162;9.470;2023-05-03T00:58:18;97129.56;;;8.78;100.00
55271;BME280;41132;47.162;9.470;2023-05-03T01:00:43;97115.06;;;8.95;100.00
55271;BME280;41132;47.162;9.470;2023-05-03T01:03:09;97128.59;;;9.00;100.00
55271;BME280;41132;47.162;9.470;2023-05-03T01:06:05;97124.53;;;8.86;100.00
55271;BME280;41132;47.162;9.470;2023-05-03T01:08:40;97120.78;;;8.79;100.00
55271;BME280;41132;47.162;9.470;2023-05-03T01:11:14;97117.19;;;8.80;100.00
55271;BME280;41132;47.162;9.470;2023-05-03T01:14:14;97124.91;;;8.82;100.00
55271;BME280;41132;47.162;9.470;2023-05-03T01:16:45;97120.31;;;8.74;100.00
55271;BME280;41132;47.162;9.470;2023-05-03T01:19:31;97125.03;;;8.80;100.00
55271;BME280;41132;47.162;9.470;2023-05-03T01:22:09;97125.59;;;8.63;100.00
55271;BME280;41132;47.162;9.470;2023-05-03T01:24:40;97122.38;;;8.70;100.00
55271;BME280;41132;47.162;9.470;2023-05-03T01:27:06;97118.66;;;8.73;100.00
55271;BME280;41132;47.162;9.470;2023-05-03T01:29:33;97110.06;;;8.61;100.00
55271;BME280;41132;47.162;9.470;2023-05-03T01:32:00;97109.03;;;8.52;100.00
55271;BME280;41132;47.162;9.470;2023-05-03T01:36:58;97128.41;;;8.71;100.00
55271;BME280;41132;47.162;9.470;2023-05-03T01:39:38;97102.19;;;8.61;100.00
55271;BME280;41132;47.162;9.470;2023-05-03T01:42:06;97119.47;;;8.73;100.00
55271;BME280;41132;47.162;9.470;2023-05-03T01:44:32;97121.28;;;8.73;100.00
55271;BME280;41132;47.162;9.470;2023-05-03T01:46:58;97118.22;;;8.68;100.00
55271;BME280;41132;47.162;9.470;2023-05-03T01:49:24;97119.22;;;8.55;100.00
55271;BME280;41132;47.162;9.470;2023-05-03T01:51:49;97101.88;;;8.54;100.00
55271;BME280;41132;47.162;9.470;2023-05-03T01:54:14;97118.84;;;8.60;100.00
55271;BME280;41132;47.162;9.470;2023-05-03T01:56:40;97109.72;;;8.75;100.00
55271;BME280;41132;47.162;9.470;2023-05-03T01:59:06;97112.34;;;8.54;100.00
55271;BME280;41132;47.162;9.470;2023-05-03T02:01:31;97115.03;;;8.64;100.00
55271;BME280;41132;47.162;9.470;2023-05-03T02:03:56;97121.28;;;8.73;100.00
55271;BME280;41132;47.162;9.470;2023-05-03T02:06:26;97105.44;;;8.53;100.00
55271;BME280;41132;47.162;9.470;2023-05-03T02:08:52;97113.50;;;8.62;100.00
55271;BME280;41132;47.162;9.470;2023-05-03T02:11:17;97110.13;;;8.50;100.00
55271;BME280;41132;47.162;9.470;2023-05-03T02:13:43;97116.66;;;8.44;100.00
55271;BME280;41132;47.162;9.470;2023-05-03T02:16:08;97118.81;;;8.39;100.00
55271;BME280;41132;47.162;9.470;2023-05-03T02:18:34;97114.22;;;8.31;100.00
55271;BME280;41132;47.162;9.470;2023-05-03T02:21:00;97122.50;;;8.48;100.00
55271;BME280;41132;47.162;9.470;2023-05-03T02:23:25;97115.06;;;8.32;100.00
55271;BME280;41132;47.162;9.470;2023-05-03T02:25:52;97106.25;;;8.33;100.00
55271;BME280;41132;47.162;9.470;2023-05-03T02:28:17;97116.13;;;8.29;100.00
55271;BME280;41132;47.162;9.470;2023-05-03T02:30:42;97114.59;;;8.27;100.00
55271;BME280;41132;47.162;9.470;2023-05-03T02:33:08;97124.16;;;8.37;100.00
55271;BME280;41132;47.162;9.470;2023-05-03T02:35:33;97110.03;;;8.40;100.00
55271;BME280;41132;47.162;9.470;2023-05-03T02:37:59;97120.16;;;8.33;100.00
55271;BME280;41132;47.162;9.470;2023-05-03T02:40:24;97135.72;;;8.35;100.00
55271;BME280;41132;47.162;9.470;2023-05-03T02:42:50;97135.47;;;8.49;100.00
55271;BME280;41132;47.162;9.470;2023-05-03T02:45:15;97140.72;;;8.38;100.00
55271;BME280;41132;47.162;9.470;2023-05-03T02:47:41;97131.44;;;8.45;100.00
55271;BME280;41132;47.162;9.470;2023-05-03T02:50:06;97130.31;;;8.27;100.00
55271;BME280;41132;47.162;9.470;2023-05-03T02:52:32;97124.75;;;8.20;100.00
55271;BME280;41132;47.162;9.470;2023-05-03T02:54:57;97143.81;;;8.32;100.00
55271;BME280;41132;47.162;9.470;2023-05-03T02:57:23;97127.81;;;8.25;100.00
55271;BME280;41132;47.162;9.470;2023-05-03T02:59:48;97139.91;;;8.26;100.00
55271;BME280;41132;47.162;9.470;2023-05-03T03:02:13;97131.94;;;8.28;100.00
55271;BME280;41132;47.162;9.470;2023-05-03T03:04:39;97130.38;;;8.04;100.00
55271;BME280;41132;47.162;9.470;2023-05-03T03:07:04;97138.22;;;8.04;100.00
55271;BME280;41132;47.162;9.470;2023-05-03T03:09:30;97134.94;;;7.91;100.00
55271;BME280;41132;47.162;9.470;2023-05-03T03:11:55;97131.91;;;8.07;100.00
55271;BME280;41132;47.162;9.470;2023-05-03T03:14:21;97136.44;;;8.05;100.00
55271;BME280;41132;47.162;9.470;2023-05-03T03:16:46;97130.38;;;8.04;100.00
55271;BME280;41132;47.162;9.470;2023-05-03T03:19:11;97129.22;;;7.97;100.00
55271;BME280;41132;47.162;9.470;2023-05-03T03:21:37;97121.69;;;8.04;100.00
55271;BME280;41132;47.162;9.470;2023-05-03T03:24:03;97119.88;;;8.15;100.00
55271;BME280;41132;47.162;9.470;2023-05-03T03:26:28;97118.22;;;8.14;100.00
55271;BME280;41132;47.162;9.470;2023-05-03T03:28:54;97123.22;;;8.18;100.00
55271;BME280;41132;47.162;9.470;2023-05-03T03:31:19;97128.94;;;8.11;100.00
55271;BME280;41132;47.162;9.470;2023-05-03T03:33:47;97104.81;;;8.08;100.00
55271;BME280;41132;47.162;9.470;2023-05-03T03:36:13;97107.91;;;8.13;100.00
55271;BME280;41132;47.162;9.470;2023-05-03T03:38:39;97117.97;;;8.18;100.00
55271;BME280;41132;47.162;9.470;2023-05-03T03:41:05;97111.63;;;8.31;100.00
55271;BME280;41132;47.162;9.470;2023-05-03T03:43:31;97107.81;;;8.24;100.00
55271;BME280;41132;47.162;9.470;2023-05-03T03:45:56;97112.56;;;8.30;100.00
55271;BME280;41132;47.162;9.470;2023-05-03T03:48:22;97104.59;;;8.32;100.00
55271;BME280;41132;47.162;9.470;2023-05-03T03:50:47;97108.22;;;8.52;100.00
55271;BME280;41132;47.162;9.470;2023-05-03T03:53:13;97103.84;;;8.41;100.00
55271;BME280;41132;47.162;9.470;2023-05-03T03:55:38;97110.25;;;8.37;100.00
55271;BME280;41132;47.162;9.470;2023-05-03T03:58:04;97114.34;;;8.30;100.00
55271;BME280;41132;47.162;9.470;2023-05-03T04:00:30;97106.13;;;8.34;100.00
55271;BME280;41132;47.162;9.470;2023-05-03T04:02:55;97110.91;;;8.29;100.00
55271;BME280;41132;47.162;9.470;2023-05-03T04:05:20;97109.44;;;8.36;100.00
55271;BME280;41132;47.162;9.470;2023-05-03T04:07:46;97111.22;;;8.47;100.00
55271;BME280;41132;47.162;9.470;2023-05-03T04:10:11;97116.47;;;8.36;100.00
55271;BME280;41132;47.162;9.470;2023-05-03T04:12:37;97115.84;;;8.44;100.00
55271;BME280;41132;47.162;9.470;2023-05-03T04:15:03;97124.66;;;8.43;100.00
55271;BME280;41132;47.162;9.470;2023-05-03T04:17:28;97109.28;;;8.17;100.00
55271;BME280;41132;47.162;9.470;2023-05-03T04:19:54;97111.34;;;8.34;100.00
55271;BME280;41132;47.162;9.470;2023-05-03T04:22:19;97118.34;;;8.45;100.00
55271;BME280;41132;47.162;9.470;2023-05-03T04:24:45;97113.03;;;8.24;100.00
55271;BME280;41132;47.162;9.470;2023-05-03T04:27:10;97083.56;;;8.01;100.00
55271;BME280;41132;47.162;9.470;2023-05-03T04:29:38;97116.38;;;8.26;100.00
55271;BME280;41132;47.162;9.470;2023-05-03T04:32:04;97100.16;;;8.11;100.00
55271;BME280;41132;47.162;9.470;2023-05-03T04:34:30;97107.44;;;8.29;100.00
55271;BME280;41132;47.162;9.470;2023-05-03T04:36:56;97119.97;;;8.25;100.00
55271;BME280;41132;47.162;9.470;2023-05-03T04:39:22;97114.47;;;8.28;100.00
55271;BME280;41132;47.162;9.470;2023-05-03T04:41:48;97120.78;;;8.26;100.00
55271;BME280;41132;47.162;9.470;2023-05-03T04:44:13;97131.94;;;8.28;100.00
55271;BME280;41132;47.162;9.470;2023-05-03T04:46:39;97114.78;;;8.35;100.00
55271;BME280;41132;47.162;9.470;2023-05-03T04:49:04;97114.94;;;8.33;100.00
55271;BME280;41132;47.162;9.470;2023-05-03T04:51:30;97100.50;;;8.39;100.00
55271;BME280;41132;47.162;9.470;2023-05-03T04:53:57;97108.72;;;8.34;100.00
55271;BME280;41132;47.162;9.470;2023-05-03T04:56:22;97121.91;;;8.44;100.00
55271;BME280;41132;47.162;9.470;2023-05-03T04:58:51;97110.25;;;8.37;100.00
55271;BME280;41132;47.162;9.470;2023-05-03T05:01:17;97093.88;;;8.35;100.00
55271;BME280;41132;47.162;9.470;2023-05-03T05:03:42;97119.09;;;8.36;100.00
55271;BME280;41132;47.162;9.470;2023-05-03T05:06:08;97128.69;;;8.35;100.00
55271;BME280;41132;47.162;9.470;2023-05-03T05:08:35;97118.59;;;8.31;100.00
55271;BME280;41132;47.162;9.470;2023-05-03T05:11:01;97113.03;;;8.24;100.00
55271;BME280;41132;47.162;9.470;2023-05-03T05:13:28;97106.06;;;8.25;100.00
55271;BME280;41132;47.162;9.470;2023-05-03T05:15:54;97135.72;;;8.35;100.00
55271;BME280;41132;47.162;9.470;2023-05-03T05:18:20;97136.78;;;8.44;100.00
55271;BME280;41132;47.162;9.470;2023-05-03T05:20:45;97117.34;;;8.25;100.00
55271;BME280;41132;47.162;9.470;2023-05-03T05:23:10;97130.47;;;8.35;100.00
55271;BME280;41132;47.162;9.470;2023-05-03T05:25:36;97135.06;;;8.54;100.00
55271;BME280;41132;47.162;9.470;2023-05-03T05:28:01;97135.91;;;8.54;100.00
55271;BME280;41132;47.162;9.470;2023-05-03T05:30:27;97136.53;;;8.68;100.00
55271;BME280;41132;47.162;9.470;2023-05-03T05:32:52;97142.47;;;8.70;100.00
55271;BME280;41132;47.162;9.470;2023-05-03T05:35:17;97138.94;;;8.81;100.00
55271;BME280;41132;47.162;9.470;2023-05-03T05:37:43;97133.63;;;8.92;100.00
55271;BME280;41132;47.162;9.470;2023-05-03T05:40:09;97138.47;;;8.96;100.00
55271;BME280;41132;47.162;9.470;2023-05-03T05:42:35;97129.00;;;9.05;100.00
55271;BME280;41132;47.162;9.470;2023-05-03T05:45:00;97130.00;;;9.04;100.00
55271;BME280;41132;47.162;9.470;2023-05-03T05:47:26;97145.66;;;9.25;100.00
55271;BME280;41132;47.162;9.470;2023-05-03T05:49:51;97136.50;;;9.19;100.00
55271;BME280;41132;47.162;9.470;2023-05-03T05:52:17;97132.38;;;9.17;100.00
55271;BME280;41132;47.162;9.470;2023-05-03T05:54:42;97141.13;;;9.27;100.00
55271;BME280;41132;47.162;9.470;2023-05-03T05:57:07;97152.03;;;9.32;100.00
55271;BME280;41132;47.162;9.470;2023-05-03T05:59:33;97149.31;;;9.53;100.00
55271;BME280;41132;47.162;9.470;2023-05-03T06:01:58;97134.31;;;9.55;100.00
55271;BME280;41132;47.162;9.470;2023-05-03T06:04:24;97151.72;;;9.66;100.00
55271;BME280;41132;47.162;9.470;2023-05-03T06:06:50;97148.81;;;9.69;100.00
55271;BME280;41132;47.162;9.470;2023-05-03T06:09:15;97149.53;;;9.71;100.00
55271;BME280;41132;47.162;9.470;2023-05-03T06:11:41;97154.66;;;9.82;100.00
55271;BME280;41132;47.162;9.470;2023-05-03T06:14:07;97163.91;;;9.87;100.00
55271;BME280;41132;47.162;9.470;2023-05-03T06:16:35;97152.31;;;9.79;100.00
55271;BME280;41132;47.162;9.470;2023-05-03T06:19:01;97152.41;;;10.38;100.00
55271;BME280;41132;47.162;9.470;2023-05-03T06:21:26;97164.41;;;11.17;100.00
55271;BME280;41132;47.162;9.470;2023-05-03T06:23:54;97157.00;;;12.23;100.00
55271;BME280;41132;47.162;9.470;2023-05-03T06:26:19;97151.09;;;12.65;100.00
55271;BME280;41132;47.162;9.470;2023-05-03T06:28:45;97139.06;;;13.32;100.00
55271;BME280;41132;47.162;9.470;2023-05-03T06:31:11;97147.25;;;14.14;100.00
55271;BME280;41132;47.162;9.470;2023-05-03T06:33:36;97146.63;;;14.53;98.61
55271;BME280;41132;47.162;9.470;2023-05-03T06:36:02;97146.31;;;14.89;92.94
55271;BME280;41132;47.162;9.470;2023-05-03T06:38:28;97145.97;;;15.73;88.10
55271;BME280;41132;47.162;9.470;2023-05-03T06:40:53;97149.66;;;16.26;79.79
55271;BME280;41132;47.162;9.470;2023-05-03T06:43:18;97137.34;;;16.56;88.54
55271;BME280;41132;47.162;9.470;2023-05-03T06:45:45;97147.06;;;16.18;82.06
55271;BME280;41132;47.162;9.470;2023-05-03T06:48:11;97141.47;;;16.59;84.03
55271;BME280;41132;47.162;9.470;2023-05-03T06:50:36;97139.06;;;16.26;81.45
55271;BME280;41132;47.162;9.470;2023-05-03T06:53:02;97146.16;;;16.25;75.87
55271;BME280;41132;47.162;9.470;2023-05-03T06:55:27;97124.88;;;16.65;80.96
55271;BME280;41132;47.162;9.470;2023-05-03T06:57:53;97146.22;;;16.86;80.84
55271;BME280;41132;47.162;9.470;2023-05-03T07:00:19;97142.72;;;17.09;77.07
55271;BME280;41132;47.162;9.470;2023-05-03T07:02:47;97142.97;;;17.73;75.49
55271;BME280;41132;47.162;9.470;2023-05-03T07:05:12;97122.88;;;17.49;70.13
55271;BME280;41132;47.162;9.470;2023-05-03T07:07:38;97113.00;;;17.43;76.01
55271;BME280;41132;47.162;9.470;2023-05-03T07:10:04;97132.94;;;17.54;79.86
55271;BME280;41132;47.162;9.470;2023-05-03T07:12:29;97137.31;;;17.91;74.68
55271;BME280;41132;47.162;9.470;2023-05-03T07:14:56;97136.41;;;17.84;70.60
55271;BME280;41132;47.162;9.470;2023-05-03T07:17:22;97134.13;;;18.18;71.16
55271;BME280;41132;47.162;9.470;2023-05-03T07:19:51;97102.44;;;18.59;68.62
55271;BME280;41132;47.162;9.470;2023-05-03T07:22:16;97126.88;;;18.48;69.73
55271;BME280;41132;47.162;9.470;2023-05-03T07:24:42;97113.19;;;18.29;68.61
55271;BME280;41132;47.162;9.470;2023-05-03T07:27:08;97120.72;;;18.04;64.76
55271;BME280;41132;47.162;9.470;2023-05-03T07:29:33;97127.94;;;18.32;68.17
55271;BME280;41132;47.162;9.470;2023-05-03T07:31:59;97126.28;;;18.74;68.75
55271;BME280;41132;47.162;9.470;2023-05-03T07:34:24;97114.72;;;18.39;65.84
55271;BME280;41132;47.162;9.470;2023-05-03T07:36:50;97117.81;;;18.64;67.50
55271;BME280;41132;47.162;9.470;2023-05-03T07:39:16;97111.44;;;19.08;69.59
55271;BME280;41132;47.162;9.470;2023-05-03T07:41:42;97111.66;;;19.48;68.15
55271;BME280;41132;47.162;9.470;2023-05-03T07:44:07;97111.00;;;19.04;62.08
55271;BME280;41132;47.162;9.470;2023-05-03T07:46:32;97105.81;;;19.24;66.31
55271;BME280;41132;47.162;9.470;2023-05-03T07:49:00;97106.44;;;19.68;62.17
55271;BME280;41132;47.162;9.470;2023-05-03T07:51:26;97086.19;;;18.75;64.42
55271;BME280;41132;47.162;9.470;2023-05-03T07:53:53;97099.59;;;19.93;66.44
55271;BME280;41132;47.162;9.470;2023-05-03T07:56:18;97092.97;;;20.57;62.30
55271;BME280;41132;47.162;9.470;2023-05-03T07:58:44;97087.53;;;20.04;58.99
55271;BME280;41132;47.162;9.470;2023-05-03T08:01:09;97084.06;;;20.10;57.53
55271;BME280;41132;47.162;9.470;2023-05-03T08:03:34;97069.88;;;19.90;59.30
55271;BME280;41132;47.162;9.470;2023-05-03T08:06:00;97060.22;;;19.89;62.51
55271;BME280;41132;47.162;9.470;2023-05-03T08:08:25;97078.94;;;19.54;61.12
55271;BME280;41132;47.162;9.470;2023-05-03T08:10:51;97085.31;;;20.28;58.84
55271;BME280;41132;47.162;9.470;2023-05-03T08:13:17;97082.03;;;20.26;59.00
55271;BME280;41132;47.162;9.470;2023-05-03T08:15:42;97075.06;;;20.24;61.92
55271;BME280;41132;47.162;9.470;2023-05-03T08:18:10;97068.19;;;19.75;62.04
55271;BME280;41132;47.162;9.470;2023-05-03T08:20:35;97067.09;;;20.51;54.45
55271;BME280;41132;47.162;9.470;2023-05-03T08:23:01;97051.06;;;19.50;58.14
55271;BME280;41132;47.162;9.470;2023-05-03T08:25:26;97053.91;;;19.96;60.78
55271;BME280;41132;47.162;9.470;2023-05-03T08:27:52;97052.91;;;20.11;61.73
55271;BME280;41132;47.162;9.470;2023-05-03T08:30:19;97056.22;;;20.33;56.55
55271;BME280;41132;47.162;9.470;2023-05-03T08:32:46;97051.31;;;20.83;56.27
55271;BME280;41132;47.162;9.470;2023-05-03T08:35:11;97049.66;;;20.82;56.07
55271;BME280;41132;47.162;9.470;2023-05-03T08:37:40;97045.38;;;20.74;56.98
55271;BME280;41132;47.162;9.470;2023-05-03T08:40:06;97037.56;;;20.39;55.81
55271;BME280;41132;47.162;9.470;2023-05-03T08:42:32;97040.84;;;20.55;55.13
55271;BME280;41132;47.162;9.470;2023-05-03T08:44:58;97047.63;;;20.84;53.83
55271;BME280;41132;47.162;9.470;2023-05-03T08:47:23;97040.25;;;20.33;54.27
55271;BME280;41132;47.162;9.470;2023-05-03T08:49:52;97029.56;;;20.86;56.41
55271;BME280;41132;47.162;9.470;2023-05-03T08:52:17;97024.41;;;20.91;55.94
55271;BME280;41132;47.162;9.470;2023-05-03T08:54:45;97023.59;;;20.97;58.38
55271;BME280;41132;47.162;9.470;2023-05-03T08:57:13;97023.13;;;21.20;55.27
55271;BME280;41132;47.162;9.470;2023-05-03T08:59:47;97019.16;;;21.43;58.59
55271;BME280;41132;47.162;9.470;2023-05-03T09:02:13;97017.66;;;20.75;53.17
55271;BME280;41132;47.162;9.470;2023-05-03T09:04:39;97021.56;;;20.93;50.54
55271;BME280;41132;47.162;9.470;2023-05-03T09:07:09;97014.34;;;21.65;57.90
55271;BME280;41132;47.162;9.470;2023-05-03T09:09:34;97010.50;;;21.54;56.03
55271;BME280;41132;47.162;9.470;2023-05-03T09:12:01;96996.53;;;21.90;56.33
55271;BME280;41132;47.162;9.470;2023-05-03T09:14:26;96998.31;;;22.03;54.12
55271;BME280;41132;47.162;9.470;2023-05-03T09:16:51;96994.38;;;22.06;49.06
55271;BME280;41132;47.162;9.470;2023-05-03T09:19:17;96997.53;;;22.28;52.95
55271;BME280;41132;47.162;9.470;2023-05-03T09:21:44;97001.03;;;20.80;52.85
55271;BME280;41132;47.162;9.470;2023-05-03T09:24:19;97005.69;;;21.69;58.91
55271;BME280;41132;47.162;9.470;2023-05-03T09:26:46;96987.28;;;21.86;54.18
55271;BME280;41132;47.162;9.470;2023-05-03T09:29:41;96987.13;;;23.07;52.30
55271;BME280;41132;47.162;9.470;2023-05-03T09:32:06;96965.94;;;22.62;52.68
55271;BME280;41132;47.162;9.470;2023-05-03T09:34:33;96984.13;;;22.35;52.46
55271;BME280;41132;47.162;9.470;2023-05-03T09:36:59;96969.34;;;22.76;52.61
55271;BME280;41132;47.162;9.470;2023-05-03T09:39:25;96970.31;;;22.06;53.27
55271;BME280;41132;47.162;9.470;2023-05-03T09:41:50;96974.91;;;22.92;54.17
55271;BME280;41132;47.162;9.470;2023-05-03T09:44:16;96947.16;;;22.68;50.36
55271;BME280;41132;47.162;9.470;2023-05-03T09:47:01;96969.06;;;22.08;51.37
55271;BME280;41132;47.162;9.470;2023-05-03T09:49:26;96968.16;;;23.27;52.61
55271;BME280;41132;47.162;9.470;2023-05-03T09:51:52;96974.34;;;22.47;50.00
55271;BME280;41132;47.162;9.470;2023-05-03T09:54:18;96971.09;;;22.13;51.22
55271;BME280;41132;47.162;9.470;2023-05-03T09:56:44;96960.56;;;21.86;51.53
55271;BME280;41132;47.162;9.470;2023-05-03T09:59:11;96967.00;;;21.40;50.74
55271;BME280;41132;47.162;9.470;2023-05-03T10:01:37;96962.72;;;22.35;49.30
55271;BME280;41132;47.162;9.470;2023-05-03T10:04:04;96969.63;;;22.42;49.32
55271;BME280;41132;47.162;9.470;2023-05-03T10:06:35;96963.69;;;23.21;50.51
55271;BME280;41132;47.162;9.470;2023-05-03T10:09:42;96958.50;;;23.26;51.51
55271;BME280;41132;47.162;9.470;2023-05-03T10:12:10;96950.25;;;22.47;50.54
55271;BME280;41132;47.162;9.470;2023-05-03T10:14:39;96958.78;;;22.81;51.30
55271;BME280;41132;47.162;9.470;2023-05-03T10:17:18;96954.38;;;22.86;49.73
55271;BME280;41132;47.162;9.470;2023-05-03T10:19:55;96961.16;;;23.44;48.73
55271;BME280;41132;47.162;9.470;2023-05-03T10:22:21;96955.53;;;23.16;50.68
55271;BME280;41132;47.162;9.470;2023-05-03T10:30:31;96962.06;;;23.99;48.72
55271;BME280;41132;47.162;9.470;2023-05-03T10:32:58;96965.41;;;23.15;48.70
55271;BME280;41132;47.162;9.470;2023-05-03T10:35:28;96948.34;;;22.54;50.00
55271;BME280;41132;47.162;9.470;2023-05-03T10:37:54;96934.22;;;21.65;51.69
55271;BME280;41132;47.162;9.470;2023-05-03T10:40:23;96968.22;;;21.38;50.53
55271;BME280;41132;47.162;9.470;2023-05-03T10:42:55;96959.75;;;20.96;55.71
55271;BME280;41132;47.162;9.470;2023-05-03T10:45:24;96963.81;;;21.12;54.71
55271;BME280;41132;47.162;9.470;2023-05-03T10:50:34;96953.13;;;19.32;57.37
55271;BME280;41132;47.162;9.470;2023-05-03T10:53:00;96957.66;;;19.38;59.59
55271;BME280;41132;47.162;9.470;2023-05-03T10:55:25;96955.06;;;19.65;60.68
55271;BME280;41132;47.162;9.470;2023-05-03T10:57:55;96960.56;;;19.50;60.02
55271;BME280;41132;47.162;9.470;2023-05-03T11:05:37;96937.84;;;18.92;63.33
55271;BME280;41132;47.162;9.470;2023-05-03T11:08:23;96956.38;;;18.79;61.64
55271;BME280;41132;47.162;9.470;2023-05-03T11:10:58;96958.81;;;19.15;66.16
55271;BME280;41132;47.162;9.470;2023-05-03T11:13:25;96965.09;;;18.73;61.49
55271;BME280;41132;47.162;9.470;2023-05-03T11:15:52;96957.94;;;18.67;63.75
55271;BME280;41132;47.162;9.470;2023-05-03T11:18:18;96954.59;;;18.58;64.26
55271;BME280;41132;47.162;9.470;2023-05-03T11:20:44;96954.50;;;18.45;58.30
55271;BME280;41132;47.162;9.470;2023-05-03T11:23:10;96950.78;;;18.39;59.71
55271;BME280;41132;47.162;9.470;2023-05-03T11:25:36;96954.13;;;18.20;56.06
55271;BME280;41132;47.162;9.470;2023-05-03T11:28:02;96952.19;;;18.07;54.73
55271;BME280;41132;47.162;9.470;2023-05-03T11:30:34;96955.59;;;18.01;56.81
55271;BME280;41132;47.162;9.470;2023-05-03T11:33:01;96956.63;;;18.00;54.62
55271;BME280;41132;47.162;9.470;2023-05-03T11:35:29;96961.88;;;18.14;58.35
55271;BME280;41132;47.162;9.470;2023-05-03T11:37:55;96965.66;;;18.05;55.54
55271;BME280;41132;47.162;9.470;2023-05-03T11:40:20;96955.59;;;18.01;57.76
55271;BME280;41132;47.162;9.470;2023-05-03T11:45:23;96935.03;;;17.81;58.54
55271;BME280;41132;47.162;9.470;2023-05-03T11:47:49;96935.13;;;17.51;58.47
55271;BME280;41132;47.162;9.470;2023-05-03T11:50:15;96944.44;;;17.69;59.65
55271;BME280;41132;47.162;9.470;2023-05-03T11:52:40;96942.25;;;17.72;60.71
55271;BME280;41132;47.162;9.470;2023-05-03T11:55:07;96954.13;;;17.55;62.19
55271;BME280;41132;47.162;9.470;2023-05-03T11:57:35;96952.44;;;17.32;64.16
55271;BME280;41132;47.162;9.470;2023-05-03T12:00:11;96941.72;;;17.41;63.04
55271;BME280;41132;47.162;9.470;2023-05-03T12:02:47;96942.13;;;17.59;66.51
55271;BME280;41132;47.162;9.470;2023-05-03T12:05:13;96940.84;;;17.55;65.50
55271;BME280;41132;47.162;9.470;2023-05-03T12:07:39;96942.81;;;17.68;63.30
55271;BME280;41132;47.162;9.470;2023-05-03T12:10:16;96933.16;;;17.60;62.95
55271;BME280;41132;47.162;9.470;2023-05-03T12:12:54;96927.09;;;17.45;62.21
55271;BME280;41132;47.162;9.470;2023-05-03T12:15:34;96935.34;;;17.57;61.85
55271;BME280;41132;47.162;9.470;2023-05-03T12:18:05;96924.34;;;17.60;65.43
55271;BME280;41132;47.162;9.470;2023-05-03T12:20:32;96923.19;;;17.62;65.53
55271;BME280;41132;47.162;9.470;2023-05-03T12:23:02;96925.38;;;17.59;61.76
55271;BME280;41132;47.162;9.470;2023-05-03T12:25:28;96933.22;;;17.67;65.72
55271;BME280;41132;47.162;9.470;2023-05-03T12:27:55;96919.13;;;17.45;61.86
55271;BME280;41132;47.162;9.470;2023-05-03T12:30:22;96920.13;;;17.44;63.81
55271;BME280;41132;47.162;9.470;2023-05-03T12:32:48;96907.88;;;17.43;62.93
55271;BME280;41132;47.162;9.470;2023-05-03T12:35:13;96917.22;;;17.39;63.74
55271;BME280;41132;47.162;9.470;2023-05-03T12:37:39;96909.91;;;17.41;64.63
55271;BME280;41132;47.162;9.470;2023-05-03T12:40:05;96911.19;;;17.30;63.41
55271;BME280;41132;47.162;9.470;2023-05-03T12:42:31;96915.03;;;17.42;63.38
55271;BME280;41132;47.162;9.470;2023-05-03T12:44:57;96903.63;;;17.27;59.71
55271;BME280;41132;47.162;9.470;2023-05-03T12:47:23;96899.59;;;17.31;59.42
55271;BME280;41132;47.162;9.470;2023-05-03T12:49:49;96908.63;;;17.37;62.80
55271;BME280;41132;47.162;9.470;2023-05-03T12:52:15;96908.69;;;17.43;62.46
55271;BME280;41132;47.162;9.470;2023-05-03T12:54:40;96906.22;;;17.42;58.72
55271;BME280;41132;47.162;9.470;2023-05-03T12:57:08;96897.25;;;17.43;61.44
55271;BME280;41132;47.162;9.470;2023-05-03T12:59:35;96892.78;;;17.43;60.57
55271;BME280;41132;47.162;9.470;2023-05-03T13:02:01;96904.66;;;17.47;59.94
55271;BME280;41132;47.162;9.470;2023-05-03T13:04:27;96888.03;;;17.39;59.74
55271;BME280;41132;47.162;9.470;2023-05-03T13:06:53;96884.50;;;17.31;61.92
55271;BME280;41132;47.162;9.470;2023-05-03T13:09:19;96890.13;;;17.43;61.42
55271;BME280;41132;47.162;9.470;2023-05-03T13:11:45;96871.38;;;17.45;60.56
55271;BME280;41132;47.162;9.470;2023-05-03T13:14:14;96884.25;;;17.48;61.12
55271;BME280;41132;47.162;9.470;2023-05-03T13:16:43;96873.84;;;17.46;59.20
55271;BME280;41132;47.162;9.470;2023-05-03T13:19:13;96866.06;;;17.45;58.89